Aérodrome :
LOGIN :

S'inscrire | Disclaimer

   EN    FR    IT 

 










Légende :    VFR   VFR Marginal   IFR   IFR Intensif   IFR Très Intensif
Visi : 
Plafond : 
>= 8 km
>= 3000ft
5 à 8 km
1000 à 3000 ft
1500m à 5 km
500 à 1000 ft
800 à 1500m
200 à 500 ft
< 800m
< 200 ft
Symboles :   Orages  Brouillard  Fortes neiges  Fortes précipitations  Vent > 20 kt
SIGMETs :   Divers  Orages  Givrage  Turbulence  Onde Orograph.  Cendres Volcan.







- Altitude de l'aérodrome : 665 ft
- Code IATA : NOC


EIKN - Connaught / Knock- Ireland West

DERNIER METAR :
  • 130900Z 13021G32KT 100V170 7000 -RA BKN006 OVC009 04/04 Q1004 TEMPO 3000

METARs EXPIRÉS :
  • 130830Z 13019G31KT 100V170 8000 -RA SCT003 OVC008 04/04 Q1003 TEMPO 3000
  • 130800Z 13020G30KT 9999 -RA SCT006 OVC009 04/04 Q1003 TEMPO 3000
  • 130730Z 13020G32KT 100V180 9000 -RA BKN009 BKN016 05/04 Q1003 TEMPO 3000
  • 130700Z 13019KT 100V170 9999 -RA SCT004 BKN007 05/04 Q1002 TEMPO 3000
  • 130630Z 13020G33KT 100V170 9999 -DZRA BKN006 OVC008 05/04 Q1002 NOSIG

TAF TAF EIKN
Valide du 13 à 06h jusqu'au 14 à 06h UTC


130500Z 1306/1406 13018G33KT 9999 -RADZ BKN006
TEMPO 1306/1308 0500 FG BKN001
TEMPO 1308/1406 3000 -RADZ BR BKN004
BECMG 1314/1316 13012KT
BECMG 1402/1404 16010KT
PROB30
TEMPO 1402/1406 0500 FG BKN001
Pas de NOTAMs connus pour ce terrain.



MET'MAP, la Météo Aéronautique d'un coup d'oeil ! - Copyright ORBIFLY Décembre 2007 - Disclaimer

ORBIFLY MET'MAP TEAM :

Programmation & Développement : Alexandra Zaïnal
Conception & Développement : Baudouin d'Aumeries
Co-Programmation & Développement : Marc-Olivier Méhu
Soutien technique & logistique : Manuel Goepfert

Contact : metmap@orbifly.com




SOURCES & CREDITS :

   NOAA